createdAt,value
2023-03-27T00:01:15.662Z,5.15
2023-03-27T00:03:49.857Z,4.38
2023-03-27T00:06:19.525Z,5.63
2023-03-27T00:08:51.491Z,4.60
2023-03-27T00:11:23.197Z,5.80
2023-03-27T00:13:54.873Z,5.00
2023-03-27T00:16:25.648Z,5.18
2023-03-27T00:18:52.980Z,5.55
2023-03-27T00:21:21.421Z,5.05
2023-03-27T00:23:49.234Z,5.70
2023-03-27T00:26:18.829Z,5.50
2023-03-27T00:28:45.566Z,5.72
2023-03-27T00:31:14.508Z,5.20
2023-03-27T00:33:41.616Z,5.88
2023-03-27T00:36:09.479Z,5.20
2023-03-27T00:38:37.290Z,6.03
2023-03-27T00:41:04.931Z,5.32
2023-03-27T00:43:34.778Z,5.72
2023-03-27T00:46:08.086Z,5.53
2023-03-27T00:48:38.018Z,6.95
2023-03-27T00:51:06.940Z,7.28
2023-03-27T00:53:34.670Z,7.38
2023-03-27T00:56:05.930Z,6.57
2023-03-27T00:58:41.958Z,6.43
2023-03-27T01:01:13.306Z,7.43
2023-03-27T01:03:44.141Z,7.32
2023-03-27T01:06:14.009Z,6.95
2023-03-27T01:08:42.816Z,9.00
2023-03-27T01:11:29.842Z,7.63
2023-03-27T01:14:17.589Z,7.72
2023-03-27T01:17:11.458Z,9.05
2023-03-27T01:20:14.248Z,8.27
2023-03-27T01:22:57.103Z,7.80
2023-03-27T01:25:35.982Z,7.10
2023-03-27T01:28:33.912Z,7.78
2023-03-27T01:31:26.978Z,8.55
2023-03-27T01:34:42.673Z,8.00
2023-03-27T01:37:28.652Z,7.35
2023-03-27T01:40:08.308Z,6.97
2023-03-27T01:42:42.511Z,6.43
2023-03-27T01:45:17.647Z,6.18
2023-03-27T01:48:28.114Z,6.25
2023-03-27T01:51:03.799Z,5.60
2023-03-27T01:53:38.074Z,6.10
2023-03-27T01:56:18.359Z,6.20
2023-03-27T01:58:51.266Z,5.88
2023-03-27T02:01:37.567Z,6.07
2023-03-27T02:04:07.602Z,5.70
2023-03-27T02:06:57.797Z,6.35
2023-03-27T02:09:39.559Z,6.40
2023-03-27T02:12:12.294Z,5.55
2023-03-27T02:14:54.024Z,7.32
2023-03-27T02:17:26.557Z,7.68
2023-03-27T02:20:00.490Z,8.48
2023-03-27T02:22:38.119Z,11.75
2023-03-27T02:25:28.420Z,11.25
2023-03-27T02:28:22.828Z,13.63
2023-03-27T02:31:32.566Z,13.90
2023-03-27T02:34:21.245Z,12.80
2023-03-27T02:37:04.805Z,13.80
2023-03-27T02:39:48.830Z,13.02
2023-03-27T02:42:26.941Z,14.00
2023-03-27T02:45:25.148Z,13.23
2023-03-27T02:47:59.440Z,17.17
2023-03-27T02:50:31.847Z,16.70
2023-03-27T02:53:03.438Z,15.10
2023-03-27T02:55:37.579Z,16.42
2023-03-27T02:58:11.427Z,18.55
2023-03-27T03:00:48.888Z,20.13
2023-03-27T03:03:37.914Z,20.85
2023-03-27T03:06:06.836Z,21.65
2023-03-27T03:08:38.539Z,18.85
2023-03-27T03:11:09.194Z,18.23
2023-03-27T03:13:37.524Z,19.08
2023-03-27T03:16:04.663Z,19.30
2023-03-27T03:18:32.564Z,17.90
2023-03-27T03:21:00.491Z,18.15
2023-03-27T03:23:27.740Z,17.20
2023-03-27T03:25:57.101Z,15.75
2023-03-27T03:28:27.719Z,14.45
2023-03-27T03:30:54.770Z,9.73
2023-03-27T03:33:22.310Z,7.20
2023-03-27T03:35:50.735Z,7.70
2023-03-27T03:38:27.237Z,7.88
2023-03-27T03:40:56.126Z,6.63
2023-03-27T03:43:24.734Z,6.47
2023-03-27T03:45:52.655Z,6.90
2023-03-27T03:48:19.944Z,5.57
2023-03-27T03:50:49.623Z,7.20
2023-03-27T03:53:18.882Z,4.05
2023-03-27T03:55:46.205Z,4.82
2023-03-27T03:58:13.800Z,4.85
2023-03-27T04:00:40.541Z,4.55
2023-03-27T04:03:09.749Z,3.83
2023-03-27T04:05:37.506Z,3.65
2023-03-27T04:08:07.363Z,3.72
2023-03-27T04:10:36.219Z,3.70
2023-03-27T04:13:03.760Z,3.40
2023-03-27T04:15:30.673Z,2.97
2023-03-27T04:17:58.440Z,4.57
2023-03-27T04:20:28.242Z,3.53
2023-03-27T04:22:55.483Z,3.38
2023-03-27T04:25:24.715Z,4.75
2023-03-27T04:27:51.910Z,4.68
2023-03-27T04:30:23.345Z,3.75
2023-03-27T04:32:51.904Z,3.90
2023-03-27T04:35:20.577Z,3.30
2023-03-27T04:37:52.706Z,4.47
2023-03-27T04:40:20.246Z,3.80
2023-03-27T04:42:52.720Z,4.38
2023-03-27T04:45:23.273Z,5.88
2023-03-27T04:47:50.094Z,4.55
2023-03-27T04:50:18.496Z,5.97
2023-03-27T04:52:50.315Z,6.20
2023-03-27T04:55:19.018Z,6.93
2023-03-27T04:57:49.942Z,5.65
2023-03-27T05:00:19.174Z,5.80
2023-03-27T05:02:48.161Z,6.05
2023-03-27T05:05:17.004Z,6.90
2023-03-27T05:07:49.117Z,8.18
2023-03-27T05:10:17.464Z,6.80
2023-03-27T05:12:50.383Z,7.55
2023-03-27T05:15:18.204Z,7.57
2023-03-27T05:17:46.856Z,7.55
2023-03-27T05:20:17.553Z,7.68
2023-03-27T05:22:45.122Z,7.53
2023-03-27T05:25:13.762Z,7.63
2023-03-27T05:27:48.142Z,5.90
2023-03-27T05:30:17.067Z,6.70
2023-03-27T05:32:56.043Z,6.03
2023-03-27T05:35:25.907Z,4.65
2023-03-27T05:37:54.650Z,6.50
2023-03-27T05:40:25.146Z,5.15
2023-03-27T05:42:53.355Z,5.30
2023-03-27T05:45:21.570Z,5.00
2023-03-27T05:47:57.110Z,4.80
2023-03-27T05:50:27.463Z,4.07
2023-03-27T05:52:56.778Z,3.72
2023-03-27T05:55:26.379Z,4.55
2023-03-27T05:57:54.892Z,4.00
2023-03-27T06:00:28.489Z,3.97
2023-03-27T06:02:58.018Z,4.18
2023-03-27T06:05:26.828Z,3.72
2023-03-27T06:07:54.339Z,4.20
2023-03-27T06:10:21.962Z,4.50
2023-03-27T06:12:49.699Z,4.10
2023-03-27T06:15:17.142Z,4.25
2023-03-27T06:17:47.236Z,5.32
2023-03-27T06:20:15.456Z,4.95
2023-03-27T06:22:48.147Z,5.35
2023-03-27T06:25:17.141Z,4.50
2023-03-27T06:27:45.516Z,4.47
2023-03-27T06:30:14.506Z,5.82
2023-03-27T06:32:47.594Z,5.20
2023-03-27T06:35:15.209Z,5.40
2023-03-27T06:37:43.068Z,5.97
2023-03-27T06:40:10.442Z,7.72
2023-03-27T06:42:37.984Z,7.55
2023-03-27T06:45:05.725Z,7.07
2023-03-27T06:47:36.350Z,7.55
2023-03-27T06:50:07.824Z,8.05
2023-03-27T06:52:34.613Z,8.10
2023-03-27T06:55:03.574Z,7.90
2023-03-27T06:57:30.799Z,8.48
2023-03-27T06:59:58.845Z,9.25
2023-03-27T07:02:27.966Z,9.07
2023-03-27T07:05:04.346Z,9.35
2023-03-27T07:07:31.932Z,9.18
2023-03-27T07:09:59.485Z,9.07
2023-03-27T07:12:27.226Z,8.77
2023-03-27T07:14:55.312Z,7.25
2023-03-27T07:17:22.193Z,7.80
2023-03-27T07:19:49.068Z,6.32
2023-03-27T07:22:16.274Z,5.47
2023-03-27T07:24:42.978Z,6.05
2023-03-27T07:27:09.700Z,5.97
2023-03-27T07:29:37.871Z,6.22
2023-03-27T07:32:09.179Z,6.85
2023-03-27T07:34:36.688Z,5.10
2023-03-27T07:37:03.476Z,4.75
2023-03-27T07:39:30.219Z,4.45
2023-03-27T07:41:58.398Z,4.75
2023-03-27T07:44:25.373Z,4.55
2023-03-27T07:46:52.709Z,4.60
2023-03-27T07:49:20.021Z,4.50
2023-03-27T07:52:06.768Z,3.47
2023-03-27T07:54:33.961Z,3.05
2023-03-27T07:57:01.374Z,2.53
2023-03-27T07:59:28.623Z,1.80
2023-03-27T08:01:55.885Z,2.40
2023-03-27T08:04:23.498Z,2.30
2023-03-27T08:06:52.325Z,1.90
2023-03-27T08:09:19.371Z,2.85
2023-03-27T08:11:46.768Z,2.05
2023-03-27T08:14:13.889Z,2.03
2023-03-27T08:16:40.644Z,1.80
2023-03-27T08:19:07.370Z,2.40
2023-03-27T08:21:34.797Z,1.90
2023-03-27T08:24:05.025Z,1.35
2023-03-27T08:26:32.661Z,1.50
2023-03-27T08:28:59.791Z,1.83
2023-03-27T08:31:30.972Z,2.20
2023-03-27T08:33:57.656Z,1.42
2023-03-27T08:36:24.867Z,1.30
2023-03-27T08:38:55.106Z,1.52
2023-03-27T08:41:31.225Z,1.50
2023-03-27T08:44:00.818Z,1.50
2023-03-27T08:46:32.311Z,1.90
2023-03-27T08:49:17.276Z,2.25
2023-03-27T08:51:48.498Z,1.33
2023-03-27T08:54:23.739Z,1.50
2023-03-27T08:56:50.768Z,1.42
2023-03-27T08:59:24.965Z,1.45
2023-03-27T09:02:09.222Z,1.85
2023-03-27T09:04:51.035Z,1.75
2023-03-27T09:07:34.750Z,1.70
2023-03-27T09:10:15.411Z,1.70
2023-03-27T09:12:59.672Z,1.90
2023-03-27T09:15:31.733Z,2.10
2023-03-27T09:18:04.755Z,1.40
2023-03-27T09:20:36.291Z,2.22
2023-03-27T09:23:17.110Z,2.00
2023-03-27T09:25:53.485Z,1.83
2023-03-27T09:28:31.900Z,1.80
2023-03-27T09:31:01.717Z,2.30
2023-03-27T09:33:28.803Z,2.20
2023-03-27T09:35:58.571Z,3.72
2023-03-27T09:38:34.328Z,2.35
2023-03-27T09:41:13.232Z,1.65
2023-03-27T09:43:46.460Z,2.10
2023-03-27T09:46:19.389Z,2.03
2023-03-27T09:48:54.055Z,2.30
2023-03-27T09:51:37.712Z,1.60
2023-03-27T09:54:05.543Z,1.77
2023-03-27T09:56:39.904Z,1.60
2023-03-27T09:59:24.442Z,1.80
2023-03-27T10:01:55.682Z,1.90
2023-03-27T10:04:24.387Z,1.45
2023-03-27T10:07:02.370Z,1.80
2023-03-27T10:09:36.028Z,1.60
2023-03-27T10:12:10.690Z,1.35
2023-03-27T10:14:43.827Z,1.95
2023-03-27T10:17:38.210Z,1.40
2023-03-27T10:20:18.093Z,1.90
2023-03-27T10:23:00.398Z,1.77
2023-03-27T10:25:31.595Z,1.50
2023-03-27T10:28:14.667Z,2.10
2023-03-27T10:30:41.687Z,1.20
2023-03-27T10:33:08.572Z,1.60
2023-03-27T10:35:38.232Z,1.73
2023-03-27T10:38:12.961Z,1.42
2023-03-27T10:40:41.018Z,1.73
2023-03-27T10:43:12.878Z,1.70
2023-03-27T10:45:53.539Z,1.77
2023-03-27T10:48:44.967Z,2.42
2023-03-27T10:51:46.586Z,1.40
2023-03-27T10:54:20.005Z,2.30
2023-03-27T10:56:58.449Z,2.15
2023-03-27T10:59:59.100Z,1.83
2023-03-27T11:02:39.824Z,1.70
2023-03-27T11:05:18.185Z,1.05
2023-03-27T11:07:53.133Z,1.55
2023-03-27T11:10:25.188Z,2.00
2023-03-27T11:12:59.137Z,1.38
2023-03-27T11:15:37.276Z,1.75
2023-03-27T11:18:13.183Z,1.10
2023-03-27T11:20:52.259Z,1.50
2023-03-27T11:23:30.034Z,1.60
2023-03-27T11:26:00.283Z,1.20
2023-03-27T11:28:43.523Z,1.20
2023-03-27T11:31:32.209Z,1.42
2023-03-27T11:34:29.013Z,1.63
2023-03-27T11:37:05.715Z,2.00
2023-03-27T11:40:15.444Z,1.10
2023-03-27T11:42:45.243Z,1.45
2023-03-27T11:45:14.985Z,1.65
2023-03-27T11:47:53.812Z,1.75
2023-03-27T11:50:31.475Z,2.10
2023-03-27T11:53:21.907Z,1.73
2023-03-27T11:56:00.388Z,2.22
2023-03-27T11:58:48.096Z,1.60
2023-03-27T12:01:30.821Z,1.98
2023-03-27T12:04:21.211Z,1.90
2023-03-27T12:07:15.371Z,1.35
2023-03-27T12:09:48.313Z,1.20
2023-03-27T12:12:47.998Z,1.25
2023-03-27T12:15:33.986Z,1.25
2023-03-27T12:18:35.310Z,1.20
2023-03-27T12:21:10.863Z,1.60
2023-03-27T12:23:52.647Z,1.05
2023-03-27T12:26:38.429Z,1.35
2023-03-27T12:29:22.713Z,1.25
2023-03-27T12:32:00.214Z,1.15
2023-03-27T12:34:33.014Z,1.73
2023-03-27T12:37:01.809Z,1.08
2023-03-27T12:39:28.862Z,1.55
2023-03-27T12:41:57.711Z,0.90
2023-03-27T13:49:34.036Z,1.10
2023-03-27T13:52:33.360Z,1.02
2023-03-27T13:55:39.895Z,1.10
2023-03-27T13:58:22.929Z,1.00
2023-03-27T14:01:25.280Z,0.98
2023-03-27T14:03:58.420Z,1.10
2023-03-27T14:06:56.300Z,0.85
2023-03-27T14:09:38.059Z,1.15
2023-03-27T14:12:04.714Z,1.00
2023-03-27T14:15:00.520Z,1.05
2023-03-27T14:18:01.892Z,1.05
2023-03-27T14:20:37.101Z,1.25
2023-03-27T14:23:14.222Z,1.02
2023-03-27T14:25:47.675Z,1.35
2023-03-27T14:28:55.598Z,1.02
2023-03-27T14:31:23.866Z,0.95
2023-03-27T14:34:04.646Z,1.30
2023-03-27T14:36:34.123Z,1.13
2023-03-27T14:39:06.540Z,1.05
2023-03-27T14:41:33.337Z,0.80
2023-03-27T14:44:04.317Z,0.88
2023-03-27T14:46:31.425Z,0.93
2023-03-27T14:48:59.973Z,1.05
2023-03-27T14:51:37.058Z,0.80
2023-03-27T14:54:08.700Z,0.85
2023-03-27T14:56:41.590Z,1.00
2023-03-27T14:59:20.657Z,0.98
2023-03-27T15:01:50.061Z,1.20
2023-03-27T15:04:17.590Z,0.90
2023-03-27T15:06:44.435Z,0.98
2023-03-27T15:09:19.420Z,1.10
2023-03-27T15:11:54.821Z,1.40
2023-03-27T15:14:29.537Z,1.25
2023-03-27T15:17:01.480Z,1.00
2023-03-27T15:19:45.917Z,0.80
2023-03-27T15:22:19.051Z,1.15
2023-03-27T15:25:26.823Z,1.02
2023-03-27T15:27:57.940Z,0.85
2023-03-27T15:30:38.236Z,1.10
2023-03-27T15:33:07.883Z,1.05
2023-03-27T15:35:42.099Z,0.77
2023-03-27T15:38:14.222Z,1.60
2023-03-27T15:40:44.261Z,1.23
2023-03-27T15:43:14.475Z,1.20
2023-03-27T15:45:41.136Z,1.20
2023-03-27T15:48:22.093Z,1.00
2023-03-27T15:51:00.906Z,1.25
2023-03-27T15:53:47.693Z,0.90
2023-03-27T15:56:23.275Z,1.17
2023-03-27T15:59:00.594Z,1.10
2023-03-27T16:01:36.853Z,0.90
2023-03-27T16:04:11.498Z,1.15
2023-03-27T16:06:41.125Z,1.30
2023-03-27T16:09:25.669Z,1.45
2023-03-27T16:11:54.805Z,2.10
2023-03-27T16:14:44.360Z,0.90
2023-03-27T16:17:19.076Z,1.35
2023-03-27T16:19:58.544Z,1.98
2023-03-27T16:22:31.021Z,1.30
2023-03-27T16:24:59.013Z,1.65
2023-03-27T16:27:36.232Z,1.20
2023-03-27T16:30:04.949Z,0.90
2023-03-27T16:32:32.747Z,2.00
2023-03-27T16:34:59.914Z,1.33
2023-03-27T16:37:27.450Z,1.00
2023-03-27T16:39:54.882Z,1.25
2023-03-27T16:42:26.476Z,1.25
2023-03-27T16:44:53.453Z,1.25
2023-03-27T16:47:23.342Z,1.23
2023-03-27T16:50:07.991Z,1.23
2023-03-27T16:52:38.148Z,1.15
2023-03-27T16:55:07.242Z,1.70
2023-03-27T16:57:35.200Z,1.10
2023-03-27T17:00:02.164Z,1.23
2023-03-27T17:02:30.710Z,1.55
2023-03-27T17:04:59.220Z,1.52
2023-03-27T17:07:28.978Z,1.40
2023-03-27T17:09:56.211Z,1.60
2023-03-27T17:12:23.796Z,1.27
2023-03-27T17:14:52.295Z,1.63
2023-03-27T17:17:19.069Z,1.40
2023-03-27T17:19:46.281Z,1.10
2023-03-27T17:22:13.900Z,1.30
2023-03-27T17:24:55.295Z,1.40
2023-03-27T17:27:26.115Z,1.98
2023-03-27T17:29:52.986Z,1.60
2023-03-27T17:32:20.066Z,2.08
2023-03-27T17:34:46.817Z,2.00
2023-03-27T17:37:13.923Z,1.80
2023-03-27T17:39:41.075Z,1.70
2023-03-27T17:42:07.762Z,1.80
2023-03-27T17:44:34.746Z,1.63
2023-03-27T17:47:01.933Z,1.83
2023-03-27T17:49:29.676Z,2.58
2023-03-27T17:51:56.887Z,1.65
2023-03-27T17:54:24.217Z,2.00
2023-03-27T17:56:51.506Z,2.00
2023-03-27T17:59:18.265Z,2.65
2023-03-27T18:01:45.895Z,1.30
2023-03-27T18:04:13.379Z,2.08
2023-03-27T18:06:41.893Z,2.08
2023-03-27T18:09:09.803Z,2.20
2023-03-27T18:11:36.709Z,2.13
2023-03-27T18:14:03.689Z,2.72
2023-03-27T18:16:30.739Z,1.70
2023-03-27T18:18:57.911Z,1.60
2023-03-27T18:21:26.469Z,1.98
2023-03-27T18:23:53.986Z,2.63
2023-03-27T18:26:21.028Z,2.15
2023-03-27T18:28:47.828Z,2.42
2023-03-27T18:31:16.819Z,2.30
2023-03-27T18:33:46.167Z,2.30
2023-03-27T18:36:13.305Z,2.60
2023-03-27T18:38:42.036Z,2.13
2023-03-27T18:41:09.675Z,2.75
2023-03-27T18:43:37.069Z,2.28
2023-03-27T18:46:07.407Z,2.70
2023-03-27T18:48:35.689Z,2.95
2023-03-27T18:51:04.687Z,4.03
2023-03-27T18:53:32.452Z,3.70
2023-03-27T18:55:59.959Z,5.68
2023-03-27T18:58:28.326Z,5.65
2023-03-27T19:00:58.880Z,5.68
2023-03-27T19:03:30.963Z,4.50
2023-03-27T19:06:01.298Z,4.45
2023-03-27T19:08:28.027Z,6.55
2023-03-27T19:10:58.967Z,7.15
2023-03-27T19:13:27.480Z,7.30
2023-03-27T19:15:54.617Z,6.55
2023-03-27T19:18:21.398Z,7.55
2023-03-27T19:20:48.609Z,5.55
2023-03-27T19:23:16.591Z,6.28
2023-03-27T19:25:48.924Z,6.65
2023-03-27T19:28:16.069Z,7.30
2023-03-27T19:30:43.277Z,8.25
2023-03-27T19:33:10.157Z,7.60
2023-03-27T19:35:37.479Z,9.70
2023-03-27T19:38:04.787Z,9.93
2023-03-27T19:40:31.810Z,7.63
2023-03-27T19:42:58.926Z,7.47
2023-03-27T19:45:27.129Z,7.20
2023-03-27T19:47:53.899Z,6.50
2023-03-27T19:50:21.139Z,6.82
2023-03-27T19:52:57.270Z,5.75
2023-03-27T19:55:28.247Z,6.43
2023-03-27T19:57:56.089Z,7.97
2023-03-27T20:00:23.393Z,7.40
2023-03-27T20:02:53.289Z,6.85
2023-03-27T20:05:20.507Z,5.72
2023-03-27T20:07:47.255Z,6.95
2023-03-27T20:10:15.668Z,6.57
2023-03-27T20:12:42.478Z,6.63
2023-03-27T20:15:12.073Z,7.38
2023-03-27T20:17:39.824Z,7.22
2023-03-27T20:20:07.603Z,6.70
2023-03-27T20:22:40.677Z,8.10
2023-03-27T20:25:14.853Z,5.88
2023-03-27T20:27:41.781Z,5.88
2023-03-27T20:30:14.048Z,6.75
2023-03-27T20:32:42.669Z,5.72
2023-03-27T20:35:20.524Z,5.43
2023-03-27T20:37:51.202Z,5.95
2023-03-27T20:40:18.899Z,6.45
2023-03-27T20:42:49.311Z,5.70
2023-03-27T20:45:19.344Z,5.90
2023-03-27T20:47:47.378Z,8.10
2023-03-27T20:50:15.291Z,5.72
2023-03-27T20:52:42.851Z,5.22
2023-03-27T20:55:11.993Z,5.93
2023-03-27T20:57:44.185Z,4.80
2023-03-27T21:00:12.542Z,5.55
2023-03-27T21:02:39.405Z,4.43
2023-03-27T21:05:06.738Z,4.60
2023-03-27T21:07:34.249Z,4.55
2023-03-27T21:10:01.097Z,4.20
2023-03-27T21:12:28.216Z,5.13
2023-03-27T21:14:54.946Z,4.20
2023-03-27T21:17:22.247Z,5.00
2023-03-27T21:19:48.928Z,4.07
2023-03-27T21:22:15.756Z,4.78
2023-03-27T21:24:42.470Z,5.40
2023-03-27T21:27:09.154Z,5.45
2023-03-27T21:29:35.940Z,4.32
2023-03-27T21:32:02.732Z,4.32
2023-03-27T21:34:30.335Z,4.97
2023-03-27T21:36:58.326Z,5.55
2023-03-27T21:39:25.254Z,4.80
2023-03-27T21:41:51.986Z,5.07
2023-03-27T21:44:19.010Z,4.80
2023-03-27T21:46:45.669Z,6.35
2023-03-27T21:49:12.757Z,6.22
2023-03-27T21:51:39.529Z,6.22
2023-03-27T21:54:06.464Z,6.07
2023-03-27T21:56:34.412Z,5.47
2023-03-27T21:59:01.615Z,4.00
2023-03-27T22:01:28.341Z,5.60
2023-03-27T22:04:02.106Z,5.05
2023-03-27T22:06:31.306Z,4.15
2023-03-27T22:08:58.467Z,4.28
2023-03-27T22:11:25.588Z,4.80
2023-03-27T22:13:52.310Z,5.15
2023-03-27T22:16:19.662Z,5.43
2023-03-27T22:18:46.880Z,4.07
2023-03-27T22:21:22.497Z,4.85
2023-03-27T22:23:51.071Z,4.40
2023-03-27T22:26:25.351Z,3.92
2023-03-27T22:28:53.165Z,3.67
2023-03-27T22:31:21.302Z,5.03
2023-03-27T22:33:51.012Z,3.70
2023-03-27T22:36:19.044Z,4.00
2023-03-27T22:38:46.437Z,4.95
2023-03-27T22:41:14.118Z,4.13
2023-03-27T22:43:41.736Z,4.40
2023-03-27T22:46:11.083Z,3.53
2023-03-27T22:48:37.959Z,3.80
2023-03-27T22:51:05.622Z,4.03
2023-03-27T22:53:32.789Z,3.47
2023-03-27T22:56:01.163Z,4.45
2023-03-27T22:58:29.448Z,3.70
2023-03-27T23:00:56.775Z,3.75
2023-03-27T23:03:24.845Z,3.50
2023-03-27T23:05:51.687Z,2.75
2023-03-27T23:08:21.287Z,4.30
2023-03-27T23:10:55.322Z,4.03
2023-03-27T23:13:22.890Z,3.65
2023-03-27T23:15:51.782Z,3.17
2023-03-27T23:18:24.800Z,3.03
2023-03-27T23:20:59.202Z,2.30
2023-03-27T23:23:28.781Z,2.60
2023-03-27T23:25:57.738Z,3.38
2023-03-27T23:28:26.004Z,3.28
2023-03-27T23:30:58.963Z,3.10
2023-03-27T23:33:27.181Z,2.72
2023-03-27T23:36:00.820Z,3.20
2023-03-27T23:38:27.791Z,2.58
2023-03-27T23:40:59.880Z,2.72
2023-03-27T23:43:27.717Z,2.97
2023-03-27T23:45:56.207Z,3.53
2023-03-27T23:48:23.527Z,2.92
2023-03-27T23:50:52.397Z,2.70
2023-03-27T23:53:22.546Z,3.10
2023-03-27T23:55:49.675Z,2.58
2023-03-27T23:58:16.380Z,2.15
